createdAt,value
2018-08-12T00:01:49.197Z,101582.13
2018-08-12T00:06:52.283Z,101583.18
2018-08-12T00:11:55.396Z,101570.22
2018-08-12T00:16:58.465Z,101566.92
2018-08-12T00:22:01.554Z,101562.66
2018-08-12T00:27:04.667Z,101565.41
2018-08-12T00:32:07.797Z,101567.73
2018-08-12T00:37:10.881Z,101561.44
2018-08-12T00:42:14.017Z,101562.45
2018-08-12T00:47:17.118Z,101560.68
2018-08-12T00:52:20.202Z,101554.25
2018-08-12T00:57:23.281Z,101558.70
2018-08-12T01:02:26.480Z,101548.08
2018-08-12T01:07:29.594Z,101546.94
2018-08-12T01:12:32.752Z,101541.92
2018-08-12T01:17:35.894Z,101538.69
2018-08-12T01:22:39.743Z,101536.50
2018-08-12T01:27:42.986Z,101542.31
2018-08-12T01:32:47.000Z,101533.72
2018-08-12T01:37:50.109Z,101536.66
2018-08-12T01:42:53.217Z,101531.55
2018-08-12T01:47:56.338Z,101529.70
2018-08-12T01:52:59.404Z,101526.61
2018-08-12T01:58:02.614Z,101526.99
2018-08-12T02:03:05.704Z,101516.42
2018-08-12T02:08:08.933Z,101520.08
2018-08-12T02:13:11.995Z,101511.73
2018-08-12T02:18:15.065Z,101520.60
2018-08-12T02:23:18.113Z,101511.50
2018-08-12T02:28:21.187Z,101501.00
2018-08-12T02:33:24.284Z,101499.72
2018-08-12T02:38:27.337Z,101501.91
2018-08-12T02:43:30.397Z,101485.75
2018-08-12T02:48:33.613Z,101477.17
2018-08-12T02:53:36.712Z,101474.72
2018-08-12T02:58:39.753Z,101472.36
2018-08-12T03:03:42.882Z,101469.86
2018-08-12T03:08:46.013Z,101461.59
2018-08-12T03:13:49.115Z,101457.05
2018-08-12T03:18:52.217Z,101453.81
2018-08-12T03:23:55.304Z,101446.08
2018-08-12T03:28:58.472Z,101447.19
2018-08-12T03:34:01.539Z,101448.75
2018-08-12T03:39:08.136Z,101440.04
2018-08-12T03:44:11.168Z,101435.42
2018-08-12T03:49:14.229Z,101434.44
2018-08-12T03:54:17.363Z,101429.75
2018-08-12T03:59:20.373Z,101424.27
2018-08-12T04:04:23.375Z,101423.88
2018-08-12T04:09:26.421Z,101429.99
2018-08-12T04:14:29.467Z,101419.86
2018-08-12T04:19:32.569Z,101409.48
2018-08-12T04:24:35.617Z,101411.36
2018-08-12T04:29:38.664Z,101402.64
2018-08-12T04:34:41.814Z,101403.89
2018-08-12T04:39:44.870Z,101397.39
2018-08-12T04:44:47.945Z,101403.25
2018-08-12T04:49:50.969Z,101406.89
2018-08-12T04:54:54.038Z,101394.52
2018-08-12T04:59:57.128Z,101389.97
2018-08-12T05:05:00.215Z,101393.55
2018-08-12T05:10:03.956Z,101392.34
2018-08-12T05:15:08.422Z,101376.27
2018-08-12T05:20:11.530Z,101377.92
2018-08-12T05:25:14.543Z,101377.48
2018-08-12T05:30:17.618Z,101372.45
2018-08-12T05:35:20.701Z,101368.41
2018-08-12T05:40:23.749Z,101364.72
2018-08-12T05:45:26.854Z,101361.09
2018-08-12T05:50:29.971Z,101349.75
2018-08-12T05:55:33.099Z,101344.41
2018-08-12T06:00:36.178Z,101346.35
2018-08-12T06:05:39.262Z,101349.25
2018-08-12T06:10:42.400Z,101345.27
2018-08-12T06:15:45.588Z,101336.72
2018-08-12T06:20:48.653Z,101330.91
2018-08-12T06:25:51.751Z,101323.73
2018-08-12T06:30:54.953Z,101318.59
2018-08-12T06:35:58.129Z,101321.37
2018-08-12T06:41:04.066Z,101320.25
2018-08-12T06:46:10.522Z,101313.59
2018-08-12T06:51:16.456Z,101312.67
2018-08-12T06:56:21.584Z,101301.78
2018-08-12T07:01:25.749Z,101301.59
2018-08-12T07:06:31.333Z,101303.23
2018-08-12T07:11:35.757Z,101292.81
2018-08-12T07:16:41.464Z,101290.08
2018-08-12T07:21:48.864Z,101287.11
2018-08-12T07:26:54.063Z,101289.09
2018-08-12T07:31:58.754Z,101296.78
2018-08-12T07:37:03.206Z,101283.03
2018-08-12T07:42:06.505Z,101285.38
2018-08-12T07:47:09.597Z,101289.08
2018-08-12T07:52:12.830Z,101285.91
2018-08-12T07:57:16.166Z,101289.42
2018-08-12T08:02:19.553Z,101288.73
2018-08-12T08:07:22.877Z,101292.48
2018-08-12T08:12:27.056Z,101281.67
2018-08-12T08:17:30.317Z,101282.41
2018-08-12T08:22:33.409Z,101281.44
2018-08-12T08:27:36.757Z,101275.36
2018-08-12T08:32:39.875Z,101276.59
2018-08-12T08:37:43.496Z,101267.36
2018-08-12T08:42:46.680Z,101258.34
2018-08-12T08:47:51.062Z,101249.28
2018-08-12T08:52:54.182Z,101245.58
2018-08-12T08:57:57.249Z,101245.59
2018-08-12T09:03:00.348Z,101249.64
2018-08-12T09:08:03.543Z,101248.92
2018-08-12T09:13:06.621Z,101244.46
2018-08-12T09:18:09.791Z,101235.23
2018-08-12T09:23:12.850Z,101220.97
2018-08-12T09:28:15.910Z,101215.33
2018-08-12T09:33:19.129Z,101207.14
2018-08-12T09:38:22.213Z,101214.57
2018-08-12T09:43:25.337Z,101209.67
2018-08-12T09:48:28.545Z,101198.65
2018-08-12T09:53:31.686Z,101199.45
2018-08-12T09:58:34.844Z,101191.97
2018-08-12T10:03:37.810Z,101189.97
2018-08-12T10:08:40.929Z,101184.38
2018-08-12T10:13:44.027Z,101181.38
2018-08-12T10:18:47.154Z,101178.48
2018-08-12T10:23:50.185Z,101174.67
2018-08-12T10:28:53.364Z,101170.16
2018-08-12T10:33:56.476Z,101162.69
2018-08-12T10:38:59.526Z,101148.72
2018-08-12T10:44:02.758Z,101139.62
2018-08-12T10:49:05.939Z,101138.56
2018-08-12T10:54:09.104Z,101129.31
2018-08-12T10:59:12.267Z,101128.08
2018-08-12T11:04:15.358Z,101120.21
2018-08-12T11:09:19.049Z,101122.46
2018-08-12T11:14:22.290Z,101107.25
2018-08-12T11:19:25.412Z,101108.21
2018-08-12T11:24:28.488Z,101106.99
2018-08-12T11:29:31.574Z,101095.17
2018-08-12T11:34:34.662Z,101094.52
2018-08-12T11:39:37.818Z,101087.09
2018-08-12T11:44:40.945Z,101083.65
2018-08-12T11:49:44.021Z,101079.92
2018-08-12T11:54:47.189Z,101070.87
2018-08-12T11:59:50.430Z,101058.56
2018-08-12T12:04:53.570Z,101058.52
2018-08-12T12:09:56.709Z,101052.61
2018-08-12T12:14:59.938Z,101041.66
2018-08-12T12:20:03.849Z,101041.67
2018-08-12T12:25:09.137Z,101029.87
2018-08-12T12:30:17.289Z,101032.19
2018-08-12T12:35:20.502Z,101023.91
2018-08-12T12:40:23.576Z,101013.27
2018-08-12T12:45:26.664Z,101005.89
2018-08-12T12:50:29.757Z,100994.58
2018-08-12T12:55:32.903Z,100988.81
2018-08-12T13:00:36.013Z,100980.41
2018-08-12T13:05:39.147Z,100975.16
2018-08-12T13:10:42.197Z,100965.72
2018-08-12T13:15:45.269Z,100956.11
2018-08-12T13:20:48.382Z,100953.06
2018-08-12T13:25:51.530Z,100950.19
2018-08-12T13:30:54.626Z,100905.66
2018-08-12T13:35:57.869Z,100924.19
2018-08-12T13:41:00.997Z,100922.95
2018-08-12T13:46:04.150Z,100918.86
2018-08-12T13:51:07.327Z,100913.67
2018-08-12T13:56:10.464Z,100905.84
2018-08-12T14:01:13.572Z,100904.08
2018-08-12T14:06:16.696Z,100891.14
2018-08-12T14:11:19.808Z,100888.38
2018-08-12T14:16:22.930Z,100872.64
2018-08-12T14:21:26.118Z,100869.63
2018-08-12T14:26:29.549Z,100853.98
2018-08-12T14:31:32.592Z,100846.84
2018-08-12T14:36:35.660Z,100845.94
2018-08-12T14:41:38.789Z,100830.76
2018-08-12T14:46:41.861Z,100829.97
2018-08-12T14:51:44.970Z,100825.14
2018-08-12T14:56:48.081Z,100815.09
2018-08-12T15:01:51.197Z,100812.38
2018-08-12T15:06:54.313Z,100807.64
2018-08-12T15:11:57.441Z,100805.98
2018-08-12T15:17:00.636Z,100801.79
2018-08-12T15:22:03.733Z,100790.02
2018-08-12T15:27:06.835Z,100787.88
2018-08-12T15:32:10.245Z,100778.21
2018-08-12T15:37:13.400Z,100770.13
2018-08-12T15:42:16.521Z,100763.13
2018-08-12T15:47:19.696Z,100758.86
2018-08-12T15:52:22.767Z,100755.54
2018-08-12T15:57:25.886Z,100751.75
2018-08-12T16:02:29.298Z,100743.12
2018-08-12T16:07:32.415Z,100738.09
2018-08-12T16:12:35.497Z,100731.94
2018-08-12T16:17:39.461Z,100720.88
2018-08-12T16:22:42.676Z,100716.62
2018-08-12T16:27:47.376Z,100718.05
2018-08-12T16:32:50.551Z,100715.75
2018-08-12T16:37:53.658Z,100708.93
2018-08-12T16:42:56.845Z,100705.00
2018-08-12T16:48:00.045Z,100710.00
2018-08-12T16:53:03.221Z,100694.19
2018-08-12T16:58:06.460Z,100687.89
2018-08-12T17:03:09.609Z,100678.61
2018-08-12T17:08:12.951Z,100676.12
2018-08-12T17:13:16.129Z,100674.55
2018-08-12T17:18:20.640Z,100669.09
2018-08-12T17:23:23.859Z,100668.58
2018-08-12T17:28:28.387Z,100659.54
2018-08-12T17:33:32.204Z,100652.88
2018-08-12T17:38:35.656Z,100641.30
2018-08-12T17:43:38.902Z,100638.47
2018-08-12T17:48:42.026Z,100634.30
2018-08-12T17:53:45.112Z,100625.62
2018-08-12T17:58:48.467Z,100629.20
2018-08-12T18:03:51.605Z,100627.22
2018-08-12T18:08:54.977Z,100627.95
2018-08-12T18:13:58.194Z,100629.67
2018-08-12T18:19:01.693Z,100630.52
2018-08-12T18:24:05.689Z,100625.08
2018-08-12T18:29:09.698Z,100618.66
2018-08-12T18:34:12.818Z,100622.00
2018-08-12T18:39:15.982Z,100624.48
2018-08-12T18:44:19.130Z,100626.19
2018-08-12T18:49:22.241Z,100619.16
2018-08-12T18:54:28.751Z,100622.77
2018-08-12T18:59:32.385Z,100619.77
2018-08-12T19:04:36.089Z,100622.23
2018-08-12T19:09:40.305Z,100621.61
2018-08-12T19:14:44.261Z,100618.81
2018-08-12T19:19:48.102Z,100621.95
2018-08-12T19:24:52.057Z,100612.28
2018-08-12T19:29:55.814Z,100614.23
2018-08-12T19:34:59.865Z,100605.16
2018-08-12T19:40:04.590Z,100604.58
2018-08-12T19:45:10.301Z,100602.02
2018-08-12T19:50:13.910Z,100598.17
2018-08-12T19:55:17.009Z,100592.30
2018-08-12T20:00:20.081Z,100592.86
2018-08-12T20:05:23.182Z,100595.39
2018-08-12T20:10:26.265Z,100595.05
2018-08-12T20:15:29.307Z,100589.06
2018-08-12T20:20:32.414Z,100578.84
2018-08-12T20:25:35.542Z,100577.31
2018-08-12T20:30:38.659Z,100564.34
2018-08-12T20:35:41.702Z,100564.98
2018-08-12T20:40:44.737Z,100559.44
2018-08-12T20:45:48.589Z,100564.57
2018-08-12T20:50:51.703Z,100567.95
2018-08-12T20:55:54.871Z,100567.89
2018-08-12T21:00:57.994Z,100567.44
2018-08-12T21:06:01.048Z,100558.83
2018-08-12T21:11:04.129Z,100556.45
2018-08-12T21:16:07.263Z,100557.80
2018-08-12T21:21:10.416Z,100548.13
2018-08-12T21:26:13.576Z,100546.63
2018-08-12T21:31:16.572Z,100542.47
2018-08-12T21:36:19.679Z,100535.03
2018-08-12T21:41:22.799Z,100524.93
2018-08-12T21:46:25.877Z,100520.20
2018-08-12T21:51:28.954Z,100520.59
2018-08-12T21:56:32.070Z,100518.77
2018-08-12T22:01:35.525Z,100507.38
2018-08-12T22:06:38.586Z,100513.16
2018-08-12T22:11:41.710Z,100507.59
2018-08-12T22:16:44.766Z,100504.44
2018-08-12T22:21:47.838Z,100506.83
2018-08-12T22:26:50.906Z,100497.47
2018-08-12T22:31:54.020Z,100500.01
2018-08-12T22:36:57.111Z,100507.61
2018-08-12T22:42:00.282Z,100495.80
2018-08-12T22:47:03.408Z,100490.75
2018-08-12T22:52:06.713Z,100494.56
2018-08-12T22:57:09.865Z,100493.25
2018-08-12T23:02:13.003Z,100487.02
2018-08-12T23:07:16.074Z,100482.25
2018-08-12T23:12:19.226Z,100486.09
2018-08-12T23:17:22.263Z,100485.88
2018-08-12T23:22:25.315Z,100483.61
2018-08-12T23:27:28.384Z,100471.97
2018-08-12T23:32:31.416Z,100468.32
2018-08-12T23:37:34.474Z,100388.75
2018-08-12T23:42:37.550Z,100451.94
2018-08-12T23:47:40.601Z,100448.61
2018-08-12T23:52:43.672Z,100447.56
2018-08-12T23:57:46.718Z,100435.00
